Time;durP1;ratioP1;P1;durP2;ratioP2;P2;SDS_P1;SDS_P2;PMS_P1;PMS_P2;Temp;Humidity;BMP_temperature;BMP_pressure;BME280_temperature;BME280_humidity;BME280_pressure;Samples;Min_cycle;Max_cycle;Signal;HPM_P1;HPM_P2
2021/05/11 00:01:22;;;;;;;;;;;;;;;19.80;45.99;97841.28;5050197;28;19964;-69
2021/05/11 00:03:48;;;;;;;;;;;;;;;19.80;45.79;97841.28;5050578;28;20277;-70
2021/05/11 00:06:13;;;;;;;;;;;;;;;19.79;45.79;97836.91;5005353;28;1276759;-69
2021/05/11 00:08:38;;;;;;;;;;;;;;;19.79;45.81;97831.31;5055101;28;19916;-69
2021/05/11 00:11:03;;;;;;;;;;;;;;;19.79;45.82;97842.53;5051686;28;19922;-69
2021/05/11 00:13:29;;;;;;;;;;;;;;;19.78;45.97;97833.34;5057644;28;19913;-69
2021/05/11 00:15:54;;;;;;;;;;;;;;;19.78;45.81;97829.75;5051168;28;19913;-69
2021/05/11 00:18:19;;;;;;;;;;;;;;;19.77;46.01;97828.94;5049924;28;19995;-69
2021/05/11 00:20:44;;;;;;;;;;;;;;;19.76;45.94;97824.56;5049568;28;19913;-70
2021/05/11 00:23:10;;;;;;;;;;;;;;;19.76;45.74;97818.16;5056166;28;19913;-70
2021/05/11 00:25:35;;;;;;;;;;;;;;;19.75;45.92;97814.56;5050897;28;19920;-70
2021/05/11 00:28:02;;;;;;;;;;;;;;;19.75;45.90;97808.19;5049647;28;19921;-70
2021/05/11 00:30:27;;;;;;;;;;;;;;;19.74;45.75;97812.22;5052127;28;19919;-70
2021/05/11 00:32:52;;;;;;;;;;;;;;;19.74;45.94;97815.03;5050945;28;19927;-69
2021/05/11 00:35:17;;;;;;;;;;;;;;;19.74;45.94;97813.00;5049176;28;19916;-70
2021/05/11 00:37:43;;;;;;;;;;;;;;;19.73;45.99;97807.84;5054014;28;19917;-70
2021/05/11 00:40:09;;;;;;;;;;;;;;;19.73;45.87;97802.25;5049160;28;19924;-69
2021/05/11 00:42:34;;;;;;;;;;;;;;;19.73;45.95;97794.59;5049184;28;20423;-70
2021/05/11 00:44:59;;;;;;;;;;;;;;;19.71;45.82;97763.41;5050616;28;19979;-70
2021/05/11 00:47:24;;;;;;;;;;;;;;;19.71;45.85;97768.25;5050576;28;19932;-69
2021/05/11 00:49:50;;;;;;;;;;;;;;;19.70;45.88;97775.09;5050638;28;20388;-70
2021/05/11 00:52:15;;;;;;;;;;;;;;;19.71;45.74;97776.66;5049066;28;19940;-68
2021/05/11 00:54:40;;;;;;;;;;;;;;;19.71;45.64;97785.09;5049461;28;19921;-69
2021/05/11 00:57:05;;;;;;;;;;;;;;;19.69;45.78;97779.91;5051470;28;19925;-70
2021/05/11 00:59:31;;;;;;;;;;;;;;;19.70;45.75;97778.69;5052302;28;19921;-69
2021/05/11 01:01:56;;;;;;;;;;;;;;;19.68;46.04;97778.34;5031567;28;20003;-69
2021/05/11 01:04:22;;;;;;;;;;;;;;;19.67;45.89;97768.38;5049159;28;19917;-68
2021/05/11 01:06:47;;;;;;;;;;;;;;;19.67;45.91;97764.78;5048648;28;19920;-70
2021/05/11 01:09:13;;;;;;;;;;;;;;;19.67;45.97;97757.13;5049019;28;19913;-69
2021/05/11 01:11:38;;;;;;;;;;;;;;;19.67;45.76;97759.16;5053347;28;19923;-70
2021/05/11 01:14:04;;;;;;;;;;;;;;;19.66;45.84;97755.56;5048359;28;20376;-69
2021/05/11 01:16:31;;;;;;;;;;;;;;;19.66;45.89;97760.41;5048597;28;20331;-68
2021/05/11 01:19:00;;;;;;;;;;;;;;;19.64;46.01;97758.84;5049090;28;19924;-69
2021/05/11 01:24:00;;;;;;;;;;;;;;;19.66;45.85;97749.19;5050803;28;19972;-69
2021/05/11 01:26:31;;;;;;;;;;;;;;;19.63;45.86;97748.84;5048801;28;20012;-70
2021/05/11 01:29:07;;;;;;;;;;;;;;;19.63;45.91;97746.06;5048530;28;20280;-69
2021/05/11 02:23:12;;;;;;;;;;;;;;;19.54;46.01;97757.19;5051477;28;20564;-70
2021/05/11 02:25:37;;;;;;;;;;;;;;;19.54;46.08;97747.97;5052838;28;19916;-69
2021/05/11 02:28:03;;;;;;;;;;;;;;;19.54;46.02;97728.34;5047142;28;20607;-69
2021/05/11 02:30:28;;;;;;;;;;;;;;;19.52;46.05;97725.97;5047475;28;20181;-69
2021/05/11 02:32:53;;;;;;;;;;;;;;;19.52;45.90;97713.97;5048453;28;19913;-70
2021/05/11 02:35:18;;;;;;;;;;;;;;;19.52;45.93;97713.97;5047755;28;20028;-70
2021/05/11 02:37:44;;;;;;;;;;;;;;;19.51;45.96;97698.38;5047742;28;19970;-68
2021/05/11 02:40:10;;;;;;;;;;;;;;;19.50;45.95;97688.41;5047790;28;19913;-71
2021/05/11 02:42:36;;;;;;;;;;;;;;;19.49;45.97;97681.22;5051135;28;19917;-69
2021/05/11 02:45:03;;;;;;;;;;;;;;;19.49;45.86;97679.22;5047400;28;19916;-70
2021/05/11 02:47:28;;;;;;;;;;;;;;;19.49;45.95;97673.59;5048717;28;19916;-68
2021/05/11 02:49:53;;;;;;;;;;;;;;;19.48;45.96;97710.53;5049621;28;19919;-69
2021/05/11 02:52:18;;;;;;;;;;;;;;;19.49;45.95;97738.13;5048112;28;19948;-70
2021/05/11 02:54:44;;;;;;;;;;;;;;;19.48;46.02;97733.75;5047900;28;20359;-69
2021/05/11 02:57:09;;;;;;;;;;;;;;;19.49;45.95;97728.91;5061341;28;20007;-69
2021/05/11 02:59:34;;;;;;;;;;;;;;;19.49;46.06;97714.91;5050031;28;20284;-69
2021/05/11 03:01:59;;;;;;;;;;;;;;;19.47;45.97;97695.72;5052823;28;20396;-69
2021/05/11 03:04:25;;;;;;;;;;;;;;;19.46;46.03;97696.97;5058523;28;19978;-71
2021/05/11 03:06:57;;;;;;;;;;;;;;;19.46;46.35;97694.16;5054018;28;20628;-69
2021/05/11 03:09:25;;;;;;;;;;;;;;;19.46;46.14;97704.59;5053891;28;19913;-70
2021/05/11 03:11:50;;;;;;;;;;;;;;;19.45;46.01;97692.59;5053130;28;19921;-69
2021/05/11 03:14:15;;;;;;;;;;;;;;;19.44;45.89;97695.84;5052947;28;19916;-69
2021/05/11 03:16:41;;;;;;;;;;;;;;;19.44;46.16;97690.22;5053372;28;19920;-69
2021/05/11 03:19:06;;;;;;;;;;;;;;;19.43;46.29;97678.22;5054649;28;19913;-69
2021/05/11 03:21:31;;;;;;;;;;;;;;;19.42;46.12;97687.88;5055150;28;20049;-70
2021/05/11 03:23:57;;;;;;;;;;;;;;;19.42;46.19;97685.06;5055335;28;19952;-69
2021/05/11 03:26:22;;;;;;;;;;;;;;;19.43;46.20;97683.03;5054452;28;20380;-69
2021/05/11 03:28:47;;;;;;;;;;;;;;;19.43;46.26;97677.44;5053789;28;19919;-69
2021/05/11 03:31:12;;;;;;;;;;;;;;;19.42;46.13;97673.84;5055673;28;20301;-69
2021/05/11 03:33:38;;;;;;;;;;;;;;;19.42;46.26;97679.47;5054309;28;19927;-69
2021/05/11 03:36:03;;;;;;;;;;;;;;;19.42;46.28;97687.09;5053689;28;19913;-69
2021/05/11 03:38:28;;;;;;;;;;;;;;;19.42;46.30;97687.09;5053184;28;20600;-69
2021/05/11 03:40:54;;;;;;;;;;;;;;;19.41;46.18;97685.53;5058619;28;19921;-69
2021/05/11 03:43:27;;;;;;;;;;;;;;;19.40;46.40;97683.97;5052014;28;19927;-69
2021/05/11 03:45:57;;;;;;;;;;;;;;;19.39;46.35;97686.00;5057317;28;19917;-70
2021/05/11 03:48:22;;;;;;;;;;;;;;;19.38;46.37;97698.47;5051884;28;20031;-69
2021/05/11 03:50:48;;;;;;;;;;;;;;;19.39;46.46;97688.03;5052401;28;19999;-69
2021/05/11 03:53:14;;;;;;;;;;;;;;;19.39;46.56;97688.03;5053639;28;19957;-70
2021/05/11 03:55:39;;;;;;;;;;;;;;;19.39;46.55;97685.22;5054160;28;20300;-69
2021/05/11 03:58:04;;;;;;;;;;;;;;;19.37;46.37;97674.47;5055312;28;19964;-69
2021/05/11 04:00:29;;;;;;;;;;;;;;;19.37;46.57;97682.88;5051411;28;19920;-69
2021/05/11 04:02:55;;;;;;;;;;;;;;;19.35;46.48;97662.88;5051554;28;19917;-68
2021/05/11 04:05:20;;;;;;;;;;;;;;;19.34;46.44;97655.72;5052633;28;19917;-69
2021/05/11 04:07:48;;;;;;;;;;;;;;;19.34;46.59;97655.72;5054632;28;20574;-68
2021/05/11 04:10:32;;;;;;;;;;;;;;;19.33;46.51;97662.56;5056345;28;19920;-69
2021/05/11 04:13:33;;;;;;;;;;;;;;;19.33;46.64;97652.13;5053627;28;20428;-71
2021/05/11 04:18:42;;;;;;;;;;;;;;;19.33;46.60;97666.16;5054088;28;20038;-69
2021/05/11 04:21:07;;;;;;;;;;;;;;;19.33;46.66;97671.75;5052168;28;19940;-69
2021/05/11 04:23:32;;;;;;;;;;;;;;;19.33;46.63;97687.81;5054613;28;19959;-69
2021/05/11 04:25:59;;;;;;;;;;;;;;;19.30;46.69;97689.50;5050924;28;19916;-69
2021/05/11 04:28:24;;;;;;;;;;;;;;;19.32;46.69;97677.84;5056019;28;19927;-69
2021/05/11 04:30:49;;;;;;;;;;;;;;;19.32;46.55;97687.03;5049986;28;19999;-69
2021/05/11 04:33:14;;;;;;;;;;;;;;;19.32;46.62;97700.28;5050545;28;20012;-68
2021/05/11 04:35:40;;;;;;;;;;;;;;;19.33;46.73;97699.03;5052601;28;19963;-70
2021/05/11 04:38:05;;;;;;;;;;;;;;;19.33;46.85;97696.22;5051014;28;19917;-69
2021/05/11 04:40:30;;;;;;;;;;;;;;;19.32;46.60;97695.44;5053834;28;19921;-70
2021/05/11 04:42:56;;;;;;;;;;;;;;;19.34;46.95;97695.75;5050033;28;20015;-69
2021/05/11 04:45:25;;;;;;;;;;;;;;;19.33;46.86;97699.81;5049305;28;19923;-69
2021/05/11 04:47:50;;;;;;;;;;;;;;;19.33;46.79;97699.03;5049221;28;20429;-70
2021/05/11 04:50:17;;;;;;;;;;;;;;;19.32;46.98;97698.25;5047828;28;20055;-69
2021/05/11 04:52:42;;;;;;;;;;;;;;;19.32;46.98;97689.84;5048474;28;20332;-69
2021/05/11 04:55:08;;;;;;;;;;;;;;;19.32;46.96;97692.63;5050095;28;19913;-70
2021/05/11 04:57:33;;;;;;;;;;;;;;;19.32;46.90;97692.63;5049754;28;19963;-69
2021/05/11 05:00:01;;;;;;;;;;;;;;;19.33;46.83;97691.41;5055214;28;20276;-69
2021/05/11 05:02:27;;;;;;;;;;;;;;;19.31;46.95;97699.50;5053020;28;19928;-69
2021/05/11 05:04:52;;;;;;;;;;;;;;;19.32;47.04;97706.66;5049870;28;19913;-69
2021/05/11 05:07:17;;;;;;;;;;;;;;;19.32;46.90;97703.06;5049598;28;20297;-68
2021/05/11 05:09:42;;;;;;;;;;;;;;;19.32;46.99;97701.06;5050388;28;19927;-70
2021/05/11 05:12:08;;;;;;;;;;;;;;;19.32;46.77;97700.28;5050334;28;20285;-69
2021/05/11 05:14:33;;;;;;;;;;;;;;;19.32;46.82;97703.06;5051124;28;19917;-70
2021/05/11 05:16:58;;;;;;;;;;;;;;;19.34;47.04;97704.19;5051167;28;20011;-70
2021/05/11 05:19:23;;;;;;;;;;;;;;;19.34;47.00;97701.38;5051342;28;19916;-69
2021/05/11 05:21:48;;;;;;;;;;;;;;;19.36;46.95;97698.09;5049303;28;19920;-70
2021/05/11 05:24:18;;;;;;;;;;;;;;;19.35;47.11;97688.13;5050154;28;19923;-69
2021/05/11 05:26:48;;;;;;;;;;;;;;;19.33;47.04;97680.19;5050799;28;19920;-69
2021/05/11 05:29:13;;;;;;;;;;;;;;;19.34;47.05;97678.16;5052281;28;19913;-69
2021/05/11 05:31:39;;;;;;;;;;;;;;;19.34;47.17;97659.31;5049417;28;19927;-69
2021/05/11 05:34:04;;;;;;;;;;;;;;;19.34;47.17;97669.75;5050144;28;19944;-68
2021/05/11 05:36:29;;;;;;;;;;;;;;;19.34;47.11;97666.94;5053034;28;20453;-69
2021/05/11 05:38:55;;;;;;;;;;;;;;;19.34;47.40;97680.97;5048550;28;19989;-69
2021/05/11 05:41:22;;;;;;;;;;;;;;;19.35;47.36;97672.09;5049747;28;19940;-69
2021/05/11 05:43:48;;;;;;;;;;;;;;;19.34;47.33;97678.16;5052733;28;19920;-69
2021/05/11 05:46:13;;;;;;;;;;;;;;;19.33;47.15;97682.97;5050326;28;19912;-69
2021/05/11 05:48:39;;;;;;;;;;;;;;;19.33;47.40;97694.19;5049650;28;20003;-70
2021/05/11 05:51:04;;;;;;;;;;;;;;;19.33;47.24;97688.59;5047983;28;19917;-69
2021/05/11 05:53:34;;;;;;;;;;;;;;;19.32;47.20;97686.25;5049462;28;19917;-69
2021/05/11 05:55:59;;;;;;;;;;;;;;;19.33;47.36;97685.78;5048063;28;19916;-69
2021/05/11 05:58:25;;;;;;;;;;;;;;;19.33;47.28;97673.78;5052849;28;19939;-69
2021/05/11 06:00:57;;;;;;;;;;;;;;;19.33;47.42;97668.19;5051924;28;19921;-69
2021/05/11 06:06:00;;;;;;;;;;;;;;;19.33;47.29;97680.19;5048194;28;20585;-69
2021/05/11 06:08:26;;;;;;;;;;;;;;;19.33;47.31;97676.59;5049982;28;19958;-69
2021/05/11 06:10:56;;;;;;;;;;;;;;;19.33;47.33;97679.41;5054292;28;20029;-70
2021/05/11 06:13:26;;;;;;;;;;;;;;;19.33;47.33;97685.78;5048359;28;20026;-69
2021/05/11 06:18:36;;;;;;;;;;;;;;;19.34;47.31;97670.53;5050284;28;19961;-69
2021/05/11 06:21:01;;;;;;;;;;;;;;;19.33;47.29;97663.34;5053739;28;19917;-69
2021/05/11 06:23:26;;;;;;;;;;;;;;;19.34;47.48;97666.94;5049190;28;20331;-69
2021/05/11 06:25:51;;;;;;;;;;;;;;;19.36;47.37;97676.47;5047743;28;20411;-69
2021/05/11 06:28:17;;;;;;;;;;;;;;;19.37;47.50;97688.47;5052643;28;20017;-69
2021/05/11 06:30:42;;;;;;;;;;;;;;;19.38;47.45;97695.66;5050592;28;19928;-70
2021/05/11 06:33:08;;;;;;;;;;;;;;;19.39;47.36;97704.84;5052823;28;19912;-69
2021/05/11 06:35:34;;;;;;;;;;;;;;;19.38;47.39;97701.25;5053640;28;19912;-69
2021/05/11 06:37:59;;;;;;;;;;;;;;;19.39;47.75;97694.41;5052641;28;20344;-69
2021/05/11 06:40:25;;;;;;;;;;;;;;;19.39;47.79;97702.03;5053011;28;20392;-69
2021/05/11 06:42:50;;;;;;;;;;;;;;;19.39;47.77;97705.63;5054723;28;20261;-70
2021/05/11 06:45:40;;;;;;;;;;;;;;;19.39;47.62;97700.03;5055185;28;19949;-69
2021/05/11 06:50:44;;;;;;;;;;;;;;;19.41;47.71;97677.13;5053687;28;19917;-69
2021/05/11 06:53:13;;;;;;;;;;;;;;;19.41;47.61;97672.28;5051430;28;19923;-69
2021/05/11 06:55:41;;;;;;;;;;;;;;;19.42;47.22;97673.06;5052837;28;19916;-69
2021/05/11 06:58:07;;;;;;;;;;;;;;;19.43;47.08;97683.03;5050798;28;19945;-69
2021/05/11 07:00:32;;;;;;;;;;;;;;;19.44;47.38;97682.59;5051370;28;19924;-69
2021/05/11 07:02:59;;;;;;;;;;;;;;;19.44;47.49;97691.00;5051905;28;19964;-69
2021/05/11 07:05:27;;;;;;;;;;;;;;;19.45;47.16;97694.63;5053305;28;19917;-69
2021/05/11 07:08:02;;;;;;;;;;;;;;;19.45;47.34;97697.41;5050719;28;19912;-69
2021/05/11 07:10:31;;;;;;;;;;;;;;;19.45;47.10;97689.78;5051270;28;19916;-71
2021/05/11 07:13:09;;;;;;;;;;;;;;;19.46;47.30;97690.56;5053382;28;19963;-69
2021/05/11 07:15:34;;;;;;;;;;;;;;;19.47;47.02;97681.69;5051433;28;19916;-70
2021/05/11 07:18:06;;;;;;;;;;;;;;;19.48;46.87;97679.66;5050099;28;19965;-68
2021/05/11 07:20:31;;;;;;;;;;;;;;;19.49;46.91;97679.22;5051020;28;19912;-69
2021/05/11 07:22:56;;;;;;;;;;;;;;;19.51;46.84;97678.75;5051237;28;19917;-69
2021/05/11 07:25:24;;;;;;;;;;;;;;;19.51;46.76;97673.91;5053263;28;20011;-69
2021/05/11 07:28:15;;;;;;;;;;;;;;;19.51;46.75;97673.13;5052448;28;20284;-70
2021/05/11 07:30:38;;;;;;;;;;;;;;;19.52;46.69;97669.88;5050336;28;19921;-70
2021/05/11 07:33:07;;;;;;;;;;;;;;;19.53;46.56;97671.44;5050347;28;19917;-69
2021/05/11 07:35:32;;;;;;;;;;;;;;;19.54;46.73;97666.63;5051357;28;20312;-69
2021/05/11 07:37:58;;;;;;;;;;;;;;;19.53;46.72;97668.66;5051190;28;19920;-69
2021/05/11 07:40:23;;;;;;;;;;;;;;;19.53;46.70;97670.69;5050701;28;19913;-69
2021/05/11 07:42:49;;;;;;;;;;;;;;;19.51;46.74;97661.91;5051654;28;19920;-69
2021/05/11 07:45:26;;;;;;;;;;;;;;;19.54;46.59;97658.22;5049346;28;19917;-70
2021/05/11 07:48:14;;;;;;;;;;;;;;;19.53;46.74;97657.44;5050703;28;19999;-70
2021/05/11 07:51:16;;;;;;;;;;;;;;;19.53;46.59;97645.44;5050790;28;20353;-70
2021/05/11 08:17:47;;;;;;;;;;;;;;;19.61;46.35;97610.25;5052106;28;19931;-69
2021/05/11 08:23:20;;;;;;;;;;;;;;;19.62;46.38;97598.59;5051401;28;19917;-70
2021/05/11 08:28:16;;;;;;;;;;;;;;;19.64;46.33;97565.22;5053844;28;20007;-70
2021/05/11 08:30:41;;;;;;;;;;;;;;;19.65;46.32;97557.59;5050010;28;20438;-69
2021/05/11 08:33:07;;;;;;;;;;;;;;;19.66;46.38;97559.16;5054559;28;19948;-69
2021/05/11 08:35:32;;;;;;;;;;;;;;;19.67;46.34;97559.94;5052733;28;19982;-69
2021/05/11 08:37:57;;;;;;;;;;;;;;;19.67;45.95;97576.75;5050951;28;19917;-69
2021/05/11 08:40:24;;;;;;;;;;;;;;;19.69;46.25;97585.50;5052182;28;19913;-69
2021/05/11 08:42:49;;;;;;;;;;;;;;;19.70;46.12;97589.91;5052793;28;19923;-70
2021/05/11 08:45:15;;;;;;;;;;;;;;;19.70;46.22;97585.06;5056488;28;19925;-68
2021/05/11 08:47:50;;;;;;;;;;;;;;;19.71;46.12;97583.81;5050926;28;19913;-70
2021/05/11 08:50:20;;;;;;;;;;;;;;;19.72;46.20;97588.19;5051320;28;20308;-70
2021/05/11 09:06:27;;;;;;;;;;;;;;;19.74;46.28;97557.63;5051462;28;20442;-69
2021/05/11 09:25:29;;;;;;;;;;;;;;;19.78;46.50;97540.66;5054943;28;19974;-69
2021/05/11 09:27:59;;;;;;;;;;;;;;;19.77;46.45;97545.47;5037418;28;19939;-69
2021/05/11 10:41:26;;;;;;;;;;;;;;;19.91;46.63;97553.31;5053582;28;19917;-70
2021/05/11 10:44:19;;;;;;;;;;;;;;;19.93;46.54;97550.03;5051866;28;19921;-70
2021/05/11 10:49:27;;;;;;;;;;;;;;;19.95;46.60;97581.25;5055892;28;19916;-70
2021/05/11 10:52:01;;;;;;;;;;;;;;;19.95;46.46;97591.72;5057316;28;19995;-69
2021/05/11 10:54:34;;;;;;;;;;;;;;;19.97;46.48;97608.88;5053440;28;19948;-70
2021/05/11 10:57:02;;;;;;;;;;;;;;;19.97;46.55;97586.41;5053117;28;19917;-70
2021/05/11 10:59:38;;;;;;;;;;;;;;;19.97;46.50;97570.34;5051319;28;20381;-68
2021/05/11 11:02:44;;;;;;;;;;;;;;;19.97;46.47;97561.94;5056787;28;19986;-70
2021/05/11 11:05:01;;;;;;;;;;;;;;;19.98;46.57;97557.88;5052093;28;20408;-69
2021/05/11 11:07:30;;;;;;;;;;;;;;;20.00;46.56;97537.75;5055363;28;19920;-69
2021/05/11 11:09:56;;;;;;;;;;;;;;;20.00;46.64;97543.38;5053890;28;19940;-71
2021/05/11 11:12:21;;;;;;;;;;;;;;;20.00;46.53;97535.72;5050547;28;20369;-69
2021/05/11 11:14:46;;;;;;;;;;;;;;;20.00;46.56;97535.72;5055205;28;20024;-69
2021/05/11 11:17:12;;;;;;;;;;;;;;;20.00;46.67;97541.34;5051566;28;19920;-70
2021/05/11 11:19:37;;;;;;;;;;;;;;;20.02;46.56;97558.50;5051746;28;19923;-70
2021/05/11 11:24:56;;;;;;;;;;;;;;;20.04;46.80;97560.84;5052223;28;19924;-70
2021/05/11 11:27:25;;;;;;;;;;;;;;;20.04;46.67;97569.28;5050730;28;19917;-70
2021/05/11 11:29:59;;;;;;;;;;;;;;;20.05;46.78;97568.03;5053641;28;19920;-68
2021/05/11 11:32:24;;;;;;;;;;;;;;;20.06;46.78;97569.59;5053516;28;19920;-70
2021/05/11 11:34:53;;;;;;;;;;;;;;;20.06;46.74;97570.38;5050209;28;19965;-70
2021/05/11 11:37:19;;;;;;;;;;;;;;;20.07;46.64;97571.94;5053202;28;19974;-69
2021/05/11 11:39:44;;;;;;;;;;;;;;;20.09;46.89;97568.66;5050213;28;20003;-70
2021/05/11 11:42:19;;;;;;;;;;;;;;;20.08;46.87;97573.50;5053485;28;19927;-70
2021/05/11 11:44:44;;;;;;;;;;;;;;;20.08;46.78;97559.44;5054056;28;19920;-70
2021/05/11 11:47:10;;;;;;;;;;;;;;;20.08;46.78;97553.06;5050951;28;19916;-69
2021/05/11 11:49:37;;;;;;;;;;;;;;;20.08;46.89;97551.03;5051144;28;19913;-70
2021/05/11 11:52:10;;;;;;;;;;;;;;;20.08;46.97;97556.63;5055348;28;19921;-71
2021/05/11 11:54:40;;;;;;;;;;;;;;;20.09;47.01;97554.63;5054232;28;20446;-69
2021/05/11 11:58:04;;;;;;;;;;;;;;;20.10;46.84;97567.41;5057032;28;19921;-69
2021/05/11 12:00:05;;;;;;;;;;;;;;;20.10;46.84;97571.00;5041507;28;19950;-69
2021/05/11 12:02:31;;;;;;;;;;;;;;;20.10;47.04;97562.56;5052036;28;19921;-70
2021/05/11 12:05:07;;;;;;;;;;;;;;;20.11;47.01;97561.34;5052395;28;20300;-69
2021/05/11 12:07:33;;;;;;;;;;;;;;;20.10;46.95;97562.56;5055673;28;20387;-70
2021/05/11 12:09:58;;;;;;;;;;;;;;;20.12;47.03;97576.16;5054068;28;19913;-69
2021/05/11 12:12:23;;;;;;;;;;;;;;;20.12;47.01;97574.13;5052007;28;19923;-70
2021/05/11 12:14:49;;;;;;;;;;;;;;;20.12;47.05;97584.59;5051806;28;19919;-68
2021/05/11 12:17:16;;;;;;;;;;;;;;;20.12;46.98;97582.56;5051708;28;19921;-69
2021/05/11 12:19:44;;;;;;;;;;;;;;;20.13;46.85;97589.75;5052550;28;19916;-72
2021/05/11 12:22:09;;;;;;;;;;;;;;;20.13;46.99;97583.34;5059952;28;20002;-70
2021/05/11 12:24:36;;;;;;;;;;;;;;;20.14;47.04;97587.72;5051477;28;19965;-69
2021/05/11 12:27:10;;;;;;;;;;;;;;;20.14;46.98;97590.53;5054839;28;20016;-69
2021/05/11 12:29:35;;;;;;;;;;;;;;;20.15;47.04;97592.84;5055116;28;19916;-69
2021/05/11 12:32:00;;;;;;;;;;;;;;;20.14;47.02;97591.31;5050989;28;19985;-69
2021/05/11 12:34:26;;;;;;;;;;;;;;;20.15;47.15;97592.84;5051264;28;20003;-69
2021/05/11 12:36:59;;;;;;;;;;;;;;;20.15;47.06;97592.84;5051483;28;19924;-69
2021/05/11 12:39:43;;;;;;;;;;;;;;;20.14;47.02;97588.50;5055277;28;20324;-69
2021/05/11 12:42:14;;;;;;;;;;;;;;;20.15;47.10;97592.84;5054359;28;20308;-70
2021/05/11 12:44:39;;;;;;;;;;;;;;;20.15;47.12;97587.25;5053744;28;19966;-69
2021/05/11 12:47:05;;;;;;;;;;;;;;;20.15;47.14;97581.63;5051039;28;19917;-68
2021/05/11 12:49:31;;;;;;;;;;;;;;;20.16;47.05;97588.03;5051991;28;19928;-69
2021/05/11 12:51:56;;;;;;;;;;;;;;;20.15;47.05;97590.06;5052061;28;19916;-69
2021/05/11 12:54:27;;;;;;;;;;;;;;;20.16;47.12;97590.81;5054643;28;19920;-69
2021/05/11 12:59:36;;;;;;;;;;;;;;;20.16;47.13;97594.41;5055941;28;19912;-70
2021/05/11 13:02:15;;;;;;;;;;;;;;;20.17;46.99;97600.81;5052143;28;20795;-70
2021/05/11 13:20:21;;;;;;;;;;;;;;;20.16;47.16;97596.44;5050501;28;19913;-71
2021/05/11 13:26:06;;;;;;;;;;;;;;;20.15;47.22;97612.50;5052538;28;19919;-69
2021/05/11 13:28:58;;;;;;;;;;;;;;;20.15;47.40;97615.31;5047312;28;20400;-70
2021/05/11 13:34:12;;;;;;;;;;;;;;;20.13;47.45;97612.19;5045767;28;20016;-69
2021/05/11 13:36:38;;;;;;;;;;;;;;;20.13;47.51;97611.44;5053926;28;19921;-69
2021/05/11 13:39:04;;;;;;;;;;;;;;;20.12;47.37;97598.63;5053807;28;19970;-69
2021/05/11 13:41:30;;;;;;;;;;;;;;;20.11;47.53;97608.31;5051861;28;19921;-70
2021/05/11 13:43:55;;;;;;;;;;;;;;;20.10;47.55;97601.88;5056913;28;20335;-71
2021/05/11 13:46:20;;;;;;;;;;;;;;;20.10;47.56;97609.53;5050744;28;20016;-70
2021/05/11 13:48:47;;;;;;;;;;;;;;;20.10;47.70;97607.50;5050334;28;19944;-69
2021/05/11 13:53:43;;;;;;;;;;;;;;;20.10;47.70;97589.88;5051388;28;19913;-70
2021/05/11 14:04:15;;;;;;;;;;;;;;;20.12;47.98;97607.06;5051737;28;20296;-69
2021/05/11 14:06:40;;;;;;;;;;;;;;;20.13;48.13;97608.63;5049651;28;19916;-69
2021/05/11 14:09:06;;;;;;;;;;;;;;;20.13;47.90;97608.63;5047275;28;20062;-70
2021/05/11 14:11:32;;;;;;;;;;;;;;;20.13;47.94;97603.78;5047659;28;20369;-69
2021/05/11 14:13:57;;;;;;;;;;;;;;;20.13;48.07;97600.97;5052583;28;19913;-70
2021/05/11 14:16:22;;;;;;;;;;;;;;;20.14;47.93;97590.53;5049788;28;20328;-69
2021/05/11 14:18:47;;;;;;;;;;;;;;;20.14;47.93;97591.31;5049470;28;19921;-70
2021/05/11 14:21:13;;;;;;;;;;;;;;;20.16;48.14;97588.03;5049266;28;19960;-70
2021/05/11 14:23:38;;;;;;;;;;;;;;;20.17;47.95;97600.81;5049154;28;19917;-69
2021/05/11 14:26:03;;;;;;;;;;;;;;;20.17;48.02;97606.44;5048910;28;19928;-70
2021/05/11 14:28:28;;;;;;;;;;;;;;;20.15;47.92;97611.75;5055897;28;19913;-70
2021/05/11 14:30:54;;;;;;;;;;;;;;;20.17;48.01;97606.44;5048983;28;20319;-70
2021/05/11 14:33:19;;;;;;;;;;;;;;;20.18;48.02;97610.78;5049055;28;20023;-69
2021/05/11 14:35:44;;;;;;;;;;;;;;;20.17;47.84;97615.63;5048582;28;19955;-70
2021/05/11 14:38:09;;;;;;;;;;;;;;;20.17;48.05;97606.44;5047117;28;19952;-69
2021/05/11 14:40:34;;;;;;;;;;;;;;;20.18;47.98;97605.19;5047023;28;19916;-69
2021/05/11 14:43:00;;;;;;;;;;;;;;;20.17;48.09;97592.38;5047196;28;19922;-70
2021/05/11 14:45:26;;;;;;;;;;;;;;;20.18;47.74;97594.72;5046841;28;20387;-69
2021/05/11 14:47:52;;;;;;;;;;;;;;;20.17;47.89;97598.78;5052187;28;19967;-70
2021/05/11 14:50:17;;;;;;;;;;;;;;;20.17;47.79;97598.00;5048669;28;19924;-69
2021/05/11 14:52:43;;;;;;;;;;;;;;;20.19;48.00;97603.97;5048268;28;20388;-69
2021/05/11 14:55:09;;;;;;;;;;;;;;;20.19;48.00;97593.50;5047811;28;19916;-70
2021/05/11 14:57:34;;;;;;;;;;;;;;;20.21;47.92;97595.84;5053419;28;19920;-69
2021/05/11 14:59:59;;;;;;;;;;;;;;;20.23;48.16;97603.81;5051753;28;19913;-69
2021/05/11 15:02:24;;;;;;;;;;;;;;;20.23;48.09;97598.19;5051932;28;19925;-69
2021/05/11 15:04:50;;;;;;;;;;;;;;;20.25;48.13;97604.13;5050568;28;20011;-70
2021/05/11 15:07:15;;;;;;;;;;;;;;;20.25;48.06;97599.28;5052225;28;19932;-69
2021/05/11 15:09:40;;;;;;;;;;;;;;;20.24;48.07;97599.75;5050844;28;19948;-69
2021/05/11 15:12:05;;;;;;;;;;;;;;;20.24;48.11;97602.56;5054805;28;19916;-70
2021/05/11 15:14:31;;;;;;;;;;;;;;;20.25;48.14;97592.88;5052167;28;19924;-70
2021/05/11 15:17:09;;;;;;;;;;;;;;;20.23;48.20;97592.56;5051111;28;19931;-70
2021/05/11 15:19:34;;;;;;;;;;;;;;;20.24;48.22;97585.69;5038033;28;19916;-69
2021/05/11 15:22:00;;;;;;;;;;;;;;;20.25;48.12;97592.88;5052115;28;19920;-70
2021/05/11 15:24:25;;;;;;;;;;;;;;;20.24;48.31;97588.50;5052110;28;19931;-69
2021/05/11 15:26:50;;;;;;;;;;;;;;;20.23;48.15;97584.16;5051158;28;19926;-69
2021/05/11 15:29:15;;;;;;;;;;;;;;;20.22;48.24;97582.59;5051919;28;19920;-70
2021/05/11 15:31:41;;;;;;;;;;;;;;;20.22;48.29;97582.59;5053629;28;19934;-70
2021/05/11 15:34:06;;;;;;;;;;;;;;;20.19;48.31;97582.28;5052974;28;20004;-70
2021/05/11 15:36:31;;;;;;;;;;;;;;;20.18;48.21;97583.50;5050561;28;19961;-69
2021/05/11 15:38:56;;;;;;;;;;;;;;;20.17;48.28;97587.56;5053473;28;19932;-68
2021/05/11 15:41:22;;;;;;;;;;;;;;;20.16;48.30;97586.00;5052559;28;19913;-70
2021/05/11 15:43:47;;;;;;;;;;;;;;;20.15;48.01;97589.28;5051295;28;19924;-69
2021/05/11 15:46:12;;;;;;;;;;;;;;;20.17;48.08;97595.97;5052827;28;19916;-70
2021/05/11 15:48:37;;;;;;;;;;;;;;;20.18;48.03;97611.56;5054700;28;19913;-69
2021/05/11 15:51:02;;;;;;;;;;;;;;;20.14;48.24;97599.72;5050884;28;19924;-70
2021/05/11 15:53:28;;;;;;;;;;;;;;;20.13;48.38;97605.81;5054096;28;19921;-69
2021/05/11 15:55:53;;;;;;;;;;;;;;;20.11;48.33;97608.31;5053635;28;19920;-70
2021/05/11 15:58:18;;;;;;;;;;;;;;;20.08;48.27;97601.56;5057220;28;19923;-70
2021/05/11 16:00:46;;;;;;;;;;;;;;;20.07;48.27;97597.19;5056422;28;20488;-69
2021/05/11 16:03:11;;;;;;;;;;;;;;;20.06;48.34;97592.84;5051198;28;19913;-68
2021/05/11 16:05:37;;;;;;;;;;;;;;;20.05;48.38;97594.09;5050892;28;19967;-70
2021/05/11 16:08:03;;;;;;;;;;;;;;;20.05;48.39;97596.09;5050889;28;19918;-70
2021/05/11 16:10:29;;;;;;;;;;;;;;;20.03;48.51;97590.97;5050326;28;20129;-70
2021/05/11 16:12:54;;;;;;;;;;;;;;;20.03;48.86;97599.38;5051096;28;19956;-70
2021/05/11 16:15:21;;;;;;;;;;;;;;;20.02;49.00;97605.44;5053594;28;19917;-70
2021/05/11 16:17:46;;;;;;;;;;;;;;;20.00;48.71;97613.56;5057975;28;19960;-70
2021/05/11 16:20:11;;;;;;;;;;;;;;;20.00;49.05;97613.56;5051218;28;20425;-69
2021/05/11 16:22:37;;;;;;;;;;;;;;;19.98;49.26;97616.81;5056371;28;19920;-69
2021/05/11 16:25:05;;;;;;;;;;;;;;;19.98;49.23;97630.09;5052208;28;19913;-71
2021/05/11 16:27:30;;;;;;;;;;;;;;;19.98;49.29;97644.13;5053330;28;20348;-69
2021/05/11 16:29:56;;;;;;;;;;;;;;;19.96;49.29;97641.78;5050738;28;19912;-69
2021/05/11 16:32:21;;;;;;;;;;;;;;;19.95;50.20;97651.44;5051176;28;20341;-69
2021/05/11 16:34:46;;;;;;;;;;;;;;;19.93;50.33;97640.66;5050676;28;19917;-69
2021/05/11 16:37:11;;;;;;;;;;;;;;;19.93;50.00;97632.22;5051136;28;19928;-70
2021/05/11 16:39:37;;;;;;;;;;;;;;;19.92;49.80;97630.69;5050420;28;19953;-69
2021/05/11 16:42:02;;;;;;;;;;;;;;;19.92;50.39;97639.09;5049496;28;19979;-69
2021/05/11 16:44:27;;;;;;;;;;;;;;;19.92;50.12;97646.72;5049599;28;20280;-70